BYS weather

Bicycle Lake Army Air Field
Fort Irwin/Barstow, California, United States

Public forecast

Using degrees Fahrenheit for public forecast. Weather courtesy of forecast.io.

Current aviation weather report (METAR) for Bicycle Lake Army Air Field

Retrieved 2019/10/14 19:58 UTC (19 minutes ago):

KBYS 141958Z AUTO 09004KT 10SM CLR 24/M08 A2994 RMK AO2 SLP121 T02381085

Closest aviation forecast (TAF) to Bicycle Lake Army Air Field

Closest forecast is Barstow Daggett Airport, 26.8 nm (49.6 km) SSW. Retrieved 2019/10/14 18:22 UTC (2 hours ago):

TAF KDAG 141720Z 1418/1518 30005KT P6SM SKC FM142000 06006KT P6SM SKC FM150400 28008KT P6SM SKC